Terminal Aerodrome Forecast
Issued by NWS

Home | Current Version | Previous Version | Text Only | Print | Product List | Glossary On
Versions: 1 2 3 4 5 6 7 8 9 10 11 12 13 14 15 16 17 18 19 20 21 22 23 24 25 26 27 28 29
961
FTUS43 KGRR 232340
TAFBTL
TAF
KBTL 232340Z 2400/2424 01005KT P6SM SCT025 BKN200
     FM240300 06009KT P6SM VCSH OVC035
     FM240600 08012KT 4SM -RA HZ OVC015
     FM240900 14014KT 3SM -RA BR OVC007
     FM242100 19010KT 2SM -TSRA BR OVC004CB=

USA.gov is the U.S. government's official web portal to all federal, state and local government web resources and services.